createdAt,value
2022-08-05T00:00:18.495Z,18.80
2022-08-05T00:03:04.758Z,18.80
2022-08-05T00:06:05.612Z,18.70
2022-08-05T00:08:35.216Z,18.70
2022-08-05T00:11:20.622Z,18.70
2022-08-05T00:13:55.483Z,18.60
2022-08-05T00:16:36.592Z,18.60
2022-08-05T00:19:10.057Z,18.50
2022-08-05T00:21:37.297Z,18.50
2022-08-05T00:24:10.418Z,18.50
2022-08-05T00:26:39.417Z,18.40
2022-08-05T00:29:18.131Z,18.40
2022-08-05T00:32:09.436Z,18.30
2022-08-05T00:34:43.376Z,18.30
2022-08-05T00:37:20.297Z,18.20
2022-08-05T00:39:57.310Z,18.20
2022-08-05T00:42:34.751Z,18.20
2022-08-05T00:45:02.384Z,18.10
2022-08-05T00:47:53.042Z,18.10
2022-08-05T00:50:20.923Z,18.00
2022-08-05T00:52:48.543Z,18.00
2022-08-05T00:55:15.629Z,17.90
2022-08-05T00:57:58.607Z,17.90
2022-08-05T01:00:28.642Z,17.90
2022-08-05T01:02:57.045Z,17.80
2022-08-05T01:05:27.589Z,17.80
2022-08-05T01:08:41.128Z,17.70
2022-08-05T01:10:52.412Z,17.70
2022-08-05T01:13:27.524Z,17.70
2022-08-05T01:16:46.685Z,17.60
2022-08-05T01:19:46.215Z,17.60
2022-08-05T01:22:24.211Z,17.50
2022-08-05T01:25:10.099Z,17.50
2022-08-05T01:28:00.029Z,17.50
2022-08-05T01:30:33.539Z,17.40
2022-08-05T01:33:08.373Z,17.40
2022-08-05T01:35:52.107Z,17.40
2022-08-05T01:38:26.820Z,17.40
2022-08-05T01:41:01.376Z,17.30
2022-08-05T01:43:30.648Z,17.30
2022-08-05T01:46:07.572Z,17.30
2022-08-05T01:48:49.596Z,17.30
2022-08-05T01:51:18.984Z,17.20
2022-08-05T01:53:57.742Z,17.20
2022-08-05T01:58:12.155Z,17.20
2022-08-05T01:59:28.345Z,17.20
2022-08-05T02:02:00.633Z,17.10
2022-08-05T02:04:30.151Z,17.10
2022-08-05T02:06:58.988Z,17.10
2022-08-05T02:09:27.297Z,17.10
2022-08-05T02:12:04.954Z,17.10
2022-08-05T02:15:05.385Z,17.10
2022-08-05T02:18:31.447Z,17.10
2022-08-05T02:20:30.821Z,17.00
2022-08-05T02:23:10.899Z,17.00
2022-08-05T02:25:49.173Z,17.00
2022-08-05T02:28:29.168Z,17.00
2022-08-05T02:31:04.891Z,17.00
2022-08-05T02:33:42.086Z,17.00
2022-08-05T02:36:13.560Z,17.00
2022-08-05T02:38:52.788Z,17.00
2022-08-05T02:41:28.636Z,17.00
2022-08-05T02:44:13.489Z,16.90
2022-08-05T02:46:58.837Z,16.90
2022-08-05T02:49:36.723Z,16.90
2022-08-05T02:52:11.528Z,16.90
2022-08-05T02:54:50.586Z,16.90
2022-08-05T02:58:20.087Z,16.90
2022-08-05T03:00:08.763Z,16.90
2022-08-05T03:02:39.529Z,16.90
2022-08-05T03:05:10.524Z,16.90
2022-08-05T03:08:00.937Z,16.90
2022-08-05T03:10:27.157Z,16.80
2022-08-05T03:12:55.007Z,16.80
2022-08-05T03:15:23.363Z,16.80
2022-08-05T03:17:55.757Z,16.80
2022-08-05T03:20:24.680Z,16.80
2022-08-05T03:22:53.237Z,16.80
2022-08-05T03:25:33.176Z,16.80
2022-08-05T03:28:14.453Z,16.80
2022-08-05T03:30:47.618Z,16.80
2022-08-05T03:33:16.281Z,16.80
2022-08-05T03:35:45.763Z,16.80
2022-08-05T03:38:14.419Z,16.80
2022-08-05T03:40:45.046Z,16.80
2022-08-05T03:44:09.598Z,16.90
2022-08-05T03:46:03.904Z,16.90
2022-08-05T03:48:35.399Z,16.90
2022-08-05T03:52:36.628Z,17.00
2022-08-05T03:55:52.347Z,17.00
2022-08-05T03:57:16.473Z,17.10
2022-08-05T04:00:01.680Z,17.10
2022-08-05T04:02:52.019Z,17.20
2022-08-05T04:05:33.863Z,17.20
2022-08-05T04:08:14.490Z,17.30
2022-08-05T04:10:50.625Z,17.40
2022-08-05T04:13:18.639Z,17.50
2022-08-05T04:15:52.834Z,17.50
2022-08-05T04:18:32.263Z,17.60
2022-08-05T04:21:02.693Z,17.70
2022-08-05T04:23:57.376Z,17.80
2022-08-05T04:26:20.215Z,17.90
2022-08-05T04:28:50.782Z,18.00
2022-08-05T04:31:18.823Z,18.10
2022-08-05T04:34:17.269Z,18.30
2022-08-05T04:36:45.259Z,18.40
2022-08-05T04:39:13.912Z,18.50
2022-08-05T04:41:41.378Z,18.60
2022-08-05T04:44:08.915Z,18.70
2022-08-05T04:46:36.262Z,18.80
2022-08-05T04:49:03.993Z,19.00
2022-08-05T04:51:32.537Z,19.10
2022-08-05T04:54:02.378Z,19.20
2022-08-05T04:56:34.587Z,19.30
2022-08-05T04:59:22.129Z,19.50
2022-08-05T05:02:06.927Z,19.60
2022-08-05T05:04:36.207Z,19.70
2022-08-05T05:07:09.411Z,19.80
2022-08-05T05:09:37.440Z,19.90
2022-08-05T05:12:06.150Z,20.00
2022-08-05T05:14:36.243Z,20.10
2022-08-05T05:17:03.742Z,20.20
2022-08-05T05:19:36.515Z,20.30
2022-08-05T05:22:24.364Z,20.30
2022-08-05T05:24:57.669Z,20.50
2022-08-05T05:27:45.168Z,20.60
2022-08-05T05:30:29.052Z,20.70
2022-08-05T05:33:15.832Z,20.80
2022-08-05T05:35:46.744Z,20.90
2022-08-05T05:38:22.228Z,21.00
2022-08-05T05:40:56.234Z,21.20
2022-08-05T05:43:57.014Z,21.40
2022-08-05T05:46:17.395Z,21.50
2022-08-05T05:48:48.920Z,21.60
2022-08-05T05:51:24.457Z,21.80
2022-08-05T05:53:57.464Z,22.00
2022-08-05T05:56:34.112Z,22.10
2022-08-05T05:59:07.015Z,22.20
2022-08-05T06:01:39.435Z,22.30
2022-08-05T06:04:13.110Z,22.40
2022-08-05T06:06:46.732Z,22.50
2022-08-05T06:09:25.814Z,22.60
2022-08-05T06:12:04.375Z,22.80
2022-08-05T06:14:31.860Z,22.90
2022-08-05T06:17:22.458Z,23.00
2022-08-05T06:19:57.103Z,23.10
2022-08-05T06:22:29.701Z,23.20
2022-08-05T06:24:57.715Z,23.40
2022-08-05T06:28:10.756Z,23.50
2022-08-05T06:30:17.956Z,23.60
2022-08-05T06:32:48.303Z,23.70
2022-08-05T06:36:03.194Z,23.80
2022-08-05T06:38:11.228Z,23.90
2022-08-05T06:40:44.331Z,23.90
2022-08-05T06:43:59.420Z,24.00
2022-08-05T06:46:04.094Z,24.10
2022-08-05T06:48:54.549Z,24.20
2022-08-05T06:51:29.861Z,24.30
2022-08-05T06:54:03.239Z,24.40
2022-08-05T06:56:34.291Z,24.50
2022-08-05T06:59:03.862Z,24.60
2022-08-05T07:01:36.148Z,24.70
2022-08-05T07:04:04.196Z,24.70
2022-08-05T07:06:31.758Z,24.80
2022-08-05T07:09:03.752Z,24.90
2022-08-05T07:11:36.766Z,25.00
2022-08-05T07:14:29.821Z,25.10
2022-08-05T07:18:01.164Z,25.20
2022-08-05T07:22:39.639Z,25.30
2022-08-05T07:25:23.091Z,25.50
2022-08-05T07:28:04.229Z,25.50
2022-08-05T07:30:38.579Z,25.60
2022-08-05T07:33:16.454Z,25.70
2022-08-05T07:36:04.334Z,25.80
2022-08-05T07:38:43.432Z,25.80
2022-08-05T07:42:13.011Z,25.90
2022-08-05T07:44:13.977Z,26.00
2022-08-05T07:46:48.231Z,26.00
2022-08-05T07:49:15.916Z,26.10
2022-08-05T07:51:53.536Z,26.10
2022-08-05T07:54:31.486Z,26.20
2022-08-05T07:57:18.005Z,26.30
2022-08-05T07:59:49.952Z,26.40
2022-08-05T08:02:18.155Z,26.40
2022-08-05T08:04:47.316Z,26.50
2022-08-05T08:07:15.326Z,26.60
2022-08-05T08:09:43.320Z,26.60
2022-08-05T08:12:29.682Z,26.70
2022-08-05T08:15:02.673Z,26.70
2022-08-05T08:17:34.455Z,26.80
2022-08-05T08:20:23.516Z,26.90
2022-08-05T08:22:59.420Z,27.00
2022-08-05T08:25:59.746Z,27.00
2022-08-05T08:28:36.793Z,27.10
2022-08-05T08:31:08.824Z,27.20
2022-08-05T08:33:37.854Z,27.30
2022-08-05T08:38:57.008Z,27.30
2022-08-05T08:41:50.973Z,27.40
2022-08-05T08:45:24.865Z,27.40
2022-08-05T08:47:22.295Z,27.50
2022-08-05T08:50:05.747Z,27.60
2022-08-05T08:53:01.365Z,27.60
2022-08-05T08:56:01.812Z,27.70
2022-08-05T08:58:17.289Z,27.70
2022-08-05T09:00:45.172Z,27.80
2022-08-05T09:03:16.022Z,27.90
2022-08-05T09:06:07.868Z,27.90
2022-08-05T09:08:35.237Z,27.90
2022-08-05T09:11:08.542Z,28.00
2022-08-05T09:14:01.280Z,28.10
2022-08-05T09:16:27.514Z,28.10
2022-08-05T09:18:55.503Z,28.20
2022-08-05T09:22:22.532Z,28.30
2022-08-05T09:24:12.877Z,28.30
2022-08-05T09:26:40.976Z,28.40
2022-08-05T09:29:11.016Z,28.40
2022-08-05T09:32:41.920Z,28.50
2022-08-05T09:34:55.119Z,28.60
2022-08-05T09:38:12.125Z,28.60
2022-08-05T09:40:29.388Z,28.60
2022-08-05T09:42:56.933Z,28.60
2022-08-05T09:46:07.422Z,28.70
2022-08-05T09:48:34.718Z,28.70
2022-08-05T09:51:15.366Z,28.80
2022-08-05T09:53:58.942Z,28.90
2022-08-05T09:56:33.514Z,28.90
2022-08-05T09:59:04.212Z,29.00
2022-08-05T10:01:33.742Z,29.00
2022-08-05T10:04:16.035Z,29.10
2022-08-05T10:06:59.627Z,29.20
2022-08-05T10:09:29.875Z,29.20
2022-08-05T10:12:18.916Z,29.30
2022-08-05T10:15:20.956Z,29.40
2022-08-05T10:18:07.773Z,29.50
2022-08-05T10:20:38.873Z,29.60
2022-08-05T10:23:21.773Z,29.70
2022-08-05T10:25:59.346Z,29.80
2022-08-05T10:28:29.410Z,29.90
2022-08-05T10:32:47.910Z,29.90
2022-08-05T10:33:52.382Z,30.20
2022-08-05T10:36:23.456Z,30.60
2022-08-05T10:38:59.128Z,31.20
2022-08-05T10:41:46.411Z,31.90
2022-08-05T10:44:18.463Z,32.30
2022-08-05T10:46:54.055Z,32.70
2022-08-05T10:49:26.852Z,33.10
2022-08-05T10:52:03.273Z,33.40
2022-08-05T10:55:02.616Z,33.40
2022-08-05T10:57:31.877Z,33.30
2022-08-05T11:00:13.261Z,33.00
2022-08-05T11:03:24.720Z,32.70
2022-08-05T11:06:15.363Z,32.30
2022-08-05T11:09:13.103Z,32.00
2022-08-05T11:11:53.361Z,31.80
2022-08-05T11:18:00.151Z,31.40
2022-08-05T11:20:32.538Z,31.30
2022-08-05T11:23:05.985Z,31.20
2022-08-05T11:26:05.553Z,31.10
2022-08-05T11:28:35.868Z,31.10
2022-08-05T11:31:06.473Z,31.10
2022-08-05T11:33:54.801Z,31.00
2022-08-05T11:36:42.991Z,31.00
2022-08-05T11:39:12.145Z,31.00
2022-08-05T11:42:01.430Z,31.10
2022-08-05T11:44:52.754Z,31.10
2022-08-05T11:47:48.673Z,31.20
2022-08-05T11:50:10.460Z,31.20
2022-08-05T11:52:44.138Z,31.20
2022-08-05T11:55:13.697Z,31.30
2022-08-05T11:58:11.012Z,31.40
2022-08-05T12:00:38.020Z,31.40
2022-08-05T12:03:29.349Z,31.50
2022-08-05T12:06:06.148Z,31.50
2022-08-05T12:08:51.228Z,31.60
2022-08-05T12:11:22.864Z,31.70
2022-08-05T12:13:58.732Z,31.80
2022-08-05T12:16:29.474Z,31.80
2022-08-05T12:18:56.571Z,31.80
2022-08-05T12:21:30.150Z,31.90
2022-08-05T12:23:57.829Z,32.00
2022-08-05T12:26:39.139Z,32.10
2022-08-05T12:29:09.393Z,32.20
2022-08-05T12:31:47.699Z,32.10
2022-08-05T12:34:21.278Z,32.00
2022-08-05T12:36:53.656Z,32.00
2022-08-05T12:39:22.205Z,32.10
2022-08-05T12:41:51.172Z,32.30
2022-08-05T12:44:33.311Z,32.60
2022-08-05T12:47:02.500Z,33.10
2022-08-05T12:50:03.835Z,33.70
2022-08-05T12:52:42.057Z,34.20
2022-08-05T12:55:17.986Z,34.60
2022-08-05T12:58:49.513Z,35.00
2022-08-05T13:02:00.259Z,35.30
2022-08-05T13:03:32.360Z,35.80
2022-08-05T13:06:01.971Z,36.40
2022-08-05T13:08:32.558Z,36.80
2022-08-05T13:11:04.137Z,37.40
2022-08-05T13:14:04.992Z,37.50
2022-08-05T13:16:20.287Z,37.30
2022-08-05T13:18:53.086Z,37.00
2022-08-05T13:21:28.374Z,37.10
2022-08-05T13:24:08.571Z,37.00
2022-08-05T13:26:36.443Z,37.10
2022-08-05T13:29:05.111Z,37.20
2022-08-05T13:32:02.827Z,37.30
2022-08-05T13:34:25.927Z,37.50
2022-08-05T13:36:54.714Z,38.00
2022-08-05T13:40:13.568Z,38.00
2022-08-05T13:42:14.348Z,38.00
2022-08-05T13:44:46.182Z,38.20
2022-08-05T13:47:35.569Z,38.30
2022-08-05T13:50:04.598Z,38.20
2022-08-05T13:52:35.593Z,38.00
2022-08-05T13:55:07.747Z,38.00
2022-08-05T13:57:48.960Z,37.80
2022-08-05T14:00:27.059Z,37.70
2022-08-05T14:02:58.089Z,37.60
2022-08-05T14:05:48.084Z,37.50
2022-08-05T14:08:21.096Z,37.40
2022-08-05T14:11:03.323Z,37.40
2022-08-05T14:13:42.807Z,37.30
2022-08-05T14:16:11.597Z,36.90
2022-08-05T14:18:44.069Z,36.40
2022-08-05T14:22:08.962Z,35.90
2022-08-05T14:24:00.560Z,35.20
2022-08-05T14:26:38.313Z,34.70
2022-08-05T14:29:16.213Z,34.40
2022-08-05T14:32:02.882Z,34.30
2022-08-05T14:34:35.459Z,34.30
2022-08-05T14:37:05.963Z,34.60
2022-08-05T14:39:50.087Z,34.80
2022-08-05T14:42:22.350Z,35.20
2022-08-05T14:44:49.869Z,35.70
2022-08-05T14:48:02.473Z,36.10
2022-08-05T14:50:18.480Z,36.30
2022-08-05T14:52:57.728Z,36.60
2022-08-05T14:55:39.080Z,36.80
2022-08-05T14:58:11.857Z,36.90
2022-08-05T15:00:59.796Z,37.10
2022-08-05T15:03:34.042Z,37.20
2022-08-05T15:06:15.391Z,37.10
2022-08-05T15:08:59.887Z,36.70
2022-08-05T15:11:52.832Z,36.50
2022-08-05T15:14:34.769Z,36.30
2022-08-05T15:17:09.916Z,36.20
2022-08-05T15:19:56.587Z,35.90
2022-08-05T15:22:27.212Z,35.60
2022-08-05T15:24:56.678Z,35.20
2022-08-05T15:27:25.528Z,34.90
2022-08-05T15:29:54.233Z,34.70
2022-08-05T15:32:28.893Z,34.40
2022-08-05T15:34:57.159Z,34.40
2022-08-05T15:38:34.622Z,34.20
2022-08-05T15:40:59.596Z,34.30
2022-08-05T15:43:10.929Z,34.40
2022-08-05T15:45:45.677Z,34.70
2022-08-05T15:48:14.994Z,34.90
2022-08-05T15:50:43.642Z,34.90
2022-08-05T15:53:13.847Z,35.10
2022-08-05T15:56:01.305Z,35.20
2022-08-05T15:58:29.270Z,35.20
2022-08-05T16:01:11.768Z,35.10
2022-08-05T16:03:48.443Z,35.00
2022-08-05T16:06:20.095Z,34.90
2022-08-05T16:08:51.185Z,34.80
2022-08-05T16:11:40.012Z,34.70
2022-08-05T16:14:09.142Z,34.60
2022-08-05T16:16:36.750Z,34.50
2022-08-05T16:19:04.278Z,34.40
2022-08-05T16:22:00.045Z,34.30
2022-08-05T16:24:40.242Z,34.10
2022-08-05T16:27:07.813Z,34.00
2022-08-05T16:29:37.676Z,33.80
2022-08-05T16:32:09.539Z,33.70
2022-08-05T16:34:39.250Z,33.70
2022-08-05T16:38:01.837Z,33.70
2022-08-05T16:40:06.047Z,33.70
2022-08-05T16:42:35.743Z,33.90
2022-08-05T16:45:05.882Z,34.10
2022-08-05T16:47:53.616Z,34.20
2022-08-05T16:50:23.122Z,34.40
2022-08-05T16:52:50.743Z,34.60
2022-08-05T16:55:20.387Z,34.60
2022-08-05T16:57:59.752Z,34.80
2022-08-05T17:00:37.750Z,34.80
2022-08-05T17:03:09.232Z,34.80
2022-08-05T17:05:50.206Z,34.90
2022-08-05T17:08:36.569Z,35.00
2022-08-05T17:11:12.521Z,34.90
2022-08-05T17:13:45.276Z,34.80
2022-08-05T17:16:32.860Z,34.70
2022-08-05T17:19:00.445Z,34.40
2022-08-05T17:21:35.507Z,34.00
2022-08-05T17:24:20.496Z,33.80
2022-08-05T17:26:57.085Z,33.60
2022-08-05T17:29:33.682Z,33.50
2022-08-05T17:32:11.745Z,33.40
2022-08-05T17:34:46.230Z,33.20
2022-08-05T17:37:39.396Z,33.10
2022-08-05T17:40:10.216Z,32.90
2022-08-05T17:42:42.995Z,32.60
2022-08-05T17:45:20.042Z,32.40
2022-08-05T17:47:54.533Z,32.20
2022-08-05T17:50:28.045Z,32.00
2022-08-05T17:52:59.049Z,31.80
2022-08-05T17:55:37.617Z,31.60
2022-08-05T17:58:11.252Z,31.40
2022-08-05T18:00:44.925Z,31.10
2022-08-05T18:03:56.004Z,30.80
2022-08-05T18:06:11.197Z,30.50
2022-08-05T18:08:45.940Z,30.20
2022-08-05T18:11:23.200Z,30.00
2022-08-05T18:13:52.477Z,29.80
2022-08-05T18:16:20.578Z,29.50
2022-08-05T18:18:49.925Z,29.30
2022-08-05T18:21:21.062Z,29.20
2022-08-05T18:23:53.886Z,29.00
2022-08-05T18:26:27.454Z,28.80
2022-08-05T18:28:57.648Z,28.70
2022-08-05T18:31:25.388Z,28.50
2022-08-05T18:34:01.035Z,28.40
2022-08-05T18:36:29.547Z,28.30
2022-08-05T18:38:56.750Z,28.20
2022-08-05T18:41:54.054Z,28.00
2022-08-05T18:44:12.705Z,27.90
2022-08-05T18:46:41.047Z,27.80
2022-08-05T18:49:30.315Z,27.70
2022-08-05T18:52:16.806Z,27.60
2022-08-05T18:54:45.745Z,27.50
2022-08-05T18:57:15.180Z,27.40
2022-08-05T19:00:01.816Z,27.40
2022-08-05T19:02:30.474Z,27.30
2022-08-05T19:05:02.933Z,27.20
2022-08-05T19:07:50.183Z,27.10
2022-08-05T19:10:19.274Z,27.00
2022-08-05T19:12:56.850Z,26.90
2022-08-05T19:15:57.292Z,26.80
2022-08-05T19:18:21.910Z,26.80
2022-08-05T19:20:56.070Z,26.70
2022-08-05T19:24:07.387Z,26.60
2022-08-05T19:26:11.889Z,26.50
2022-08-05T19:28:43.821Z,26.40
2022-08-05T19:31:13.606Z,26.40
2022-08-05T19:33:48.694Z,26.30
2022-08-05T19:36:25.317Z,26.20
2022-08-05T19:38:57.381Z,26.10
2022-08-05T19:42:05.822Z,26.10
2022-08-05T19:44:16.595Z,26.10
2022-08-05T19:46:43.982Z,26.00
2022-08-05T19:49:12.426Z,25.90
2022-08-05T19:52:13.316Z,25.90
2022-08-05T19:54:35.730Z,25.90
2022-08-05T19:57:08.585Z,25.80
2022-08-05T19:59:55.446Z,25.80
2022-08-05T20:02:27.790Z,25.70
2022-08-05T20:04:58.506Z,25.70
2022-08-05T20:07:46.175Z,25.70
2022-08-05T20:10:15.823Z,25.70
2022-08-05T20:12:47.943Z,25.70
2022-08-05T20:15:23.210Z,25.60
2022-08-05T20:18:10.819Z,25.50
2022-08-05T20:20:57.047Z,25.50
2022-08-05T20:23:39.703Z,25.50
2022-08-05T20:26:16.184Z,25.40
2022-08-05T20:28:50.614Z,25.40
2022-08-05T20:31:22.775Z,25.40
2022-08-05T20:33:51.056Z,25.30
2022-08-05T20:36:18.952Z,25.30
2022-08-05T20:38:54.187Z,25.30
2022-08-05T20:41:43.748Z,25.30
2022-08-05T20:44:18.900Z,25.20
2022-08-05T20:46:57.982Z,25.20
2022-08-05T20:49:25.895Z,25.20
2022-08-05T20:51:55.121Z,25.10
2022-08-05T20:54:43.514Z,25.10
2022-08-05T20:57:42.084Z,25.10
2022-08-05T21:00:20.552Z,25.00
2022-08-05T21:02:55.464Z,25.00
2022-08-05T21:05:24.646Z,25.00
2022-08-05T21:07:52.556Z,24.90
2022-08-05T21:10:20.731Z,25.00
2022-08-05T21:13:08.874Z,24.90
2022-08-05T21:15:36.750Z,24.90
2022-08-05T21:18:04.439Z,24.80
2022-08-05T21:20:32.980Z,24.80
2022-08-05T21:23:01.219Z,24.80
2022-08-05T21:25:33.906Z,24.70
2022-08-05T21:28:02.895Z,24.70
2022-08-05T21:30:31.455Z,24.70
2022-08-05T21:32:58.759Z,24.60
2022-08-05T21:35:29.757Z,24.60
2022-08-05T21:37:58.238Z,24.60
2022-08-05T21:40:25.741Z,24.50
2022-08-05T21:42:53.892Z,24.50
2022-08-05T21:45:38.098Z,24.50
2022-08-05T21:48:09.828Z,24.50
2022-08-05T21:50:37.588Z,24.40
2022-08-05T21:53:16.408Z,24.40
2022-08-05T21:56:04.882Z,24.30
2022-08-05T21:58:32.431Z,24.30
2022-08-05T22:01:00.745Z,24.20
2022-08-05T22:03:52.185Z,24.20
2022-08-05T22:06:22.272Z,24.20
2022-08-05T22:08:51.991Z,24.10
2022-08-05T22:11:34.728Z,24.10
2022-08-05T22:14:19.353Z,24.10
2022-08-05T22:16:56.920Z,24.00
2022-08-05T22:19:57.159Z,24.00
2022-08-05T22:22:15.945Z,23.90
2022-08-05T22:25:01.609Z,23.90
2022-08-05T22:28:04.943Z,23.90
2022-08-05T22:30:34.929Z,23.90
2022-08-05T22:33:15.765Z,23.80
2022-08-05T22:35:48.730Z,23.80
2022-08-05T22:38:19.722Z,23.80
2022-08-05T22:40:49.775Z,23.70
2022-08-05T22:43:37.295Z,23.70
2022-08-05T22:46:13.510Z,23.70
2022-08-05T22:48:50.758Z,23.70
2022-08-05T22:51:23.248Z,23.70
2022-08-05T22:54:05.817Z,23.60
2022-08-05T22:56:33.026Z,23.60
2022-08-05T22:59:04.655Z,23.60
2022-08-05T23:02:04.293Z,23.50
2022-08-05T23:04:33.517Z,23.50
2022-08-05T23:07:00.904Z,23.50
2022-08-05T23:09:53.311Z,23.40
2022-08-05T23:12:17.887Z,23.40
2022-08-05T23:14:45.287Z,23.40
2022-08-05T23:17:34.466Z,23.40
2022-08-05T23:20:17.451Z,23.40
2022-08-05T23:22:48.654Z,23.30
2022-08-05T23:25:53.156Z,23.30
2022-08-05T23:28:07.114Z,23.30
2022-08-05T23:30:40.480Z,23.30
2022-08-05T23:33:16.134Z,23.30
2022-08-05T23:35:51.057Z,23.30
2022-08-05T23:38:18.470Z,23.30
2022-08-05T23:40:49.829Z,23.30
2022-08-05T23:43:25.387Z,23.20
2022-08-05T23:46:05.341Z,23.20
2022-08-05T23:48:59.666Z,23.20
2022-08-05T23:51:54.295Z,23.20
2022-08-05T23:54:30.234Z,23.10
2022-08-05T23:57:03.359Z,23.10
